Portada
METAR-TAF:

METAR-TAF

Aeroports :

Aeroport Internacional Amata Kabua

Majuro, Illes Marshall

latitud: 07-04N, longitud: 171-17E, altitud: 2 m

Observació

L'informe es va fer fa 39 minuts, a les 01:55 UTC
Vent 18 kt del Nord-Est
Temperatura 31°C
Humitat 75%
Pressió 1010 hPa
Visibilitat: 24.1 km
Escasses núvols a una alçada de 1500 ft
Núvols disperses a una alçada de 5000 ft
Cel ennuvolat a una alçada de 30000 ft

METAR: PKMJ 230155Z 04018KT 15SM FEW015 SCT050 BKN300 31/26 A2982

Hora: 14:34 (02:34 UTC)

Pronòstic

L'informe es va fer fa 2 hores i 57 minuts, a les 23:37 UTC
Pronòstic vàlid del 23 a les 00 UTC al 23 a les 24 UTC
Vent 14 kt del Est/Nord-Est amb ràfegues de 20 kt
Visibilitat: 10 km
Escasses núvols a una alçada de 1600 ft
Núvols disperses a una alçada de 5000 ft
Cel ennuvolat a una alçada de 12000 ft
xàfecs en les proximitats

TAF: PKMJ 222337Z 2300/2324 07014G20KT P6SM VCSH FEW016 SCT050 BKN120

Observacions i pronòstics meteorològics de més de 4000 aeroports (METAR i TAF).

Les estacions disponibles són els punts grocs i vermells al mapa.

Posi el ratolí al punt desitjat per veure el nom de l'estació.

Feu clic per veure les observacions i els pronòstics meteorològics.

Per canviar el mapa: feu clic els botons verds amb una creu de color negre per apropar; al botó verd amb un guió per allunyar la imatge; o en les fletxes verdes per a mapes adjacents.


METAR-TAF: